createdAt,value
2023-03-29T00:05:13.351Z,11.00
2023-03-29T00:07:40.019Z,9.00
2023-03-29T00:10:07.631Z,9.75
2023-03-29T00:20:39.637Z,6.50
2023-03-29T00:40:28.039Z,11.00
2023-03-29T01:22:22.705Z,15.25
2023-03-29T01:25:07.277Z,13.00
2023-03-29T01:27:39.479Z,13.25
2023-03-29T01:30:12.190Z,15.00
2023-03-29T01:32:38.690Z,16.00
2023-03-29T01:35:10.516Z,12.00
2023-03-29T01:37:39.448Z,10.50
2023-03-29T01:40:06.369Z,12.75
2023-03-29T01:42:40.596Z,11.25
2023-03-29T01:45:10.333Z,14.00
2023-03-29T01:47:43.511Z,14.00
2023-03-29T01:50:14.709Z,16.67
2023-03-29T01:52:48.748Z,13.50
2023-03-29T01:55:19.537Z,16.50
2023-03-29T01:57:47.365Z,21.00
2023-03-29T02:00:19.187Z,5.00
2023-03-29T02:02:46.775Z,12.00
2023-03-29T02:05:14.999Z,14.00
2023-03-29T02:07:43.604Z,14.00
2023-03-29T02:10:11.434Z,14.00
2023-03-29T02:12:38.395Z,21.25
2023-03-29T02:15:12.604Z,16.50
2023-03-29T02:17:39.226Z,24.25
2023-03-29T02:20:14.968Z,15.25
2023-03-29T02:22:46.668Z,15.00
2023-03-29T02:25:13.314Z,24.75
2023-03-29T02:27:39.849Z,21.25
2023-03-29T02:30:07.454Z,19.25
2023-03-29T02:32:52.052Z,18.00
2023-03-29T02:35:22.068Z,24.00
2023-03-29T02:37:51.542Z,17.00
2023-03-29T02:40:18.226Z,9.00
2023-03-29T02:42:45.580Z,18.50
2023-03-29T02:45:14.521Z,21.25
2023-03-29T02:47:46.619Z,19.50
2023-03-29T02:50:13.232Z,18.00
2023-03-29T02:52:43.261Z,9.25
2023-03-29T02:55:16.351Z,19.50
2023-03-29T02:57:44.053Z,21.25
2023-03-29T03:00:11.603Z,22.75
2023-03-29T03:02:38.163Z,18.50
2023-03-29T03:05:05.698Z,16.50
2023-03-29T03:07:35.555Z,23.00
2023-03-29T03:10:03.948Z,22.00
2023-03-29T03:12:32.216Z,24.25
2023-03-29T03:14:59.388Z,22.25
2023-03-29T03:17:30.331Z,13.00
2023-03-29T03:19:58.109Z,18.00
2023-03-29T03:22:26.934Z,20.00
2023-03-29T03:45:31.186Z,25.25
2023-03-29T03:48:02.271Z,26.75
2023-03-29T03:50:35.111Z,26.50
2023-03-29T03:53:01.695Z,18.75
2023-03-29T03:55:30.446Z,19.00
2023-03-29T03:57:57.250Z,18.50
2023-03-29T04:01:06.163Z,27.75
2023-03-29T04:03:41.458Z,21.75
2023-03-29T04:13:03.840Z,19.00
2023-03-29T04:16:00.135Z,22.75
2023-03-29T04:19:05.705Z,21.75
2023-03-29T04:21:35.507Z,20.50
2023-03-29T04:24:11.477Z,23.00
2023-03-29T04:26:55.494Z,19.50
2023-03-29T04:36:55.813Z,18.50
2023-03-29T04:50:20.970Z,16.00
2023-03-29T04:59:07.546Z,18.00
2023-03-29T05:01:42.184Z,9.50
2023-03-29T05:04:16.119Z,19.50
2023-03-29T05:06:49.115Z,19.75
2023-03-29T05:09:30.214Z,18.50
2023-03-29T06:30:51.678Z,14.75
2023-03-29T06:33:35.141Z,18.00
2023-03-29T06:36:22.296Z,13.50
2023-03-29T07:18:15.549Z,17.00
2023-03-29T07:20:45.405Z,11.00
2023-03-29T07:23:24.130Z,11.67
2023-03-29T07:25:58.876Z,10.00
2023-03-29T07:28:37.757Z,10.00
2023-03-29T07:34:19.558Z,10.67
2023-03-29T07:46:16.112Z,6.25
2023-03-29T07:51:55.746Z,4.75
2023-03-29T07:54:45.397Z,5.50
2023-03-29T08:14:55.919Z,3.50
2023-03-29T08:17:30.678Z,3.00
2023-03-29T08:20:14.311Z,3.00
2023-03-29T08:34:48.419Z,2.25
2023-03-29T08:37:16.382Z,2.25
2023-03-29T08:39:43.113Z,3.50
2023-03-29T08:42:47.281Z,2.25
2023-03-29T08:45:14.038Z,2.50
2023-03-29T08:51:17.563Z,3.00
2023-03-29T08:53:47.731Z,4.00
2023-03-29T08:56:19.326Z,4.50
2023-03-29T08:58:46.719Z,2.00
2023-03-29T09:01:13.379Z,2.75
2023-03-29T09:03:48.391Z,3.75
2023-03-29T09:06:15.973Z,3.25
2023-03-29T09:08:45.117Z,2.00
2023-03-29T09:11:20.730Z,3.75
2023-03-29T09:14:12.809Z,2.00
2023-03-29T09:16:51.257Z,1.75
2023-03-29T09:19:43.969Z,3.00
2023-03-29T09:22:10.311Z,2.00
2023-03-29T09:24:55.534Z,3.50
2023-03-29T09:27:26.529Z,1.00
2023-03-29T09:29:53.292Z,2.00
2023-03-29T09:32:21.505Z,2.00
2023-03-29T09:34:51.749Z,3.00
2023-03-29T09:37:33.125Z,2.75
2023-03-29T09:39:59.982Z,2.75
2023-03-29T09:42:28.794Z,2.25
2023-03-29T09:44:57.363Z,3.00
2023-03-29T09:47:27.145Z,4.25
2023-03-29T09:49:59.321Z,3.00
2023-03-29T09:52:25.862Z,4.00
2023-03-29T09:54:52.399Z,4.00
2023-03-29T09:57:19.729Z,3.25
2023-03-29T09:59:47.237Z,3.00
2023-03-29T10:02:14.037Z,3.50
2023-03-29T10:04:42.511Z,3.00
2023-03-29T10:07:20.752Z,3.75
2023-03-29T10:09:56.264Z,2.00
2023-03-29T10:12:23.166Z,3.00
2023-03-29T10:14:53.589Z,4.25
2023-03-29T10:17:25.191Z,4.00
2023-03-29T10:19:52.675Z,4.25
2023-03-29T10:22:23.529Z,5.00
2023-03-29T10:24:51.801Z,4.00
2023-03-29T10:27:25.701Z,4.00
2023-03-29T10:29:52.343Z,4.00
2023-03-29T10:32:27.033Z,2.00
2023-03-29T10:34:54.454Z,3.00
2023-03-29T10:37:23.098Z,5.00
2023-03-29T10:39:50.382Z,4.00
2023-03-29T10:42:18.256Z,3.00
2023-03-29T10:44:52.790Z,5.00
2023-03-29T10:47:20.377Z,3.25
2023-03-29T10:49:56.712Z,3.00
2023-03-29T10:52:23.793Z,3.25
2023-03-29T10:54:51.681Z,4.00
2023-03-29T10:57:30.377Z,3.00
2023-03-29T11:00:00.068Z,4.00
2023-03-29T11:02:33.925Z,2.75
2023-03-29T11:05:09.456Z,3.00
2023-03-29T11:07:46.785Z,2.00
2023-03-29T11:10:32.377Z,3.00
2023-03-29T11:12:58.964Z,3.00
2023-03-29T11:15:51.396Z,3.00
2023-03-29T11:18:36.701Z,3.75
2023-03-29T11:21:39.759Z,4.00
2023-03-29T11:24:24.535Z,3.00
2023-03-29T11:27:03.236Z,6.00
2023-03-29T11:29:53.081Z,2.25
2023-03-29T11:32:19.705Z,2.00
2023-03-29T11:34:46.252Z,3.25
2023-03-29T11:37:22.274Z,3.75
2023-03-29T11:39:56.933Z,2.75
2023-03-29T11:42:33.294Z,2.00
2023-03-29T11:45:00.736Z,3.00
2023-03-29T11:47:29.467Z,3.00
2023-03-29T11:49:57.439Z,2.00
2023-03-29T11:52:32.440Z,4.25
2023-03-29T11:55:03.841Z,3.75
2023-03-29T11:57:38.367Z,3.00
2023-03-29T12:00:08.020Z,3.00
2023-03-29T12:02:40.564Z,2.75
2023-03-29T12:05:12.085Z,3.00
2023-03-29T12:07:46.282Z,3.00
2023-03-29T12:10:24.025Z,3.00
2023-03-29T12:12:55.660Z,3.25
2023-03-29T12:15:26.445Z,3.50
2023-03-29T12:18:01.989Z,3.25
2023-03-29T12:20:31.861Z,3.00
2023-03-29T12:22:58.446Z,3.25
2023-03-29T12:25:34.563Z,2.25
2023-03-29T12:28:07.797Z,4.00
2023-03-29T12:30:42.556Z,3.00
2023-03-29T12:33:18.203Z,3.00
2023-03-29T12:35:52.871Z,3.00
2023-03-29T12:38:24.242Z,3.00
2023-03-29T12:41:02.103Z,2.50
2023-03-29T12:43:33.206Z,2.75
2023-03-29T12:46:10.257Z,2.00
2023-03-29T12:48:37.910Z,2.00
2023-03-29T12:51:07.782Z,4.75
2023-03-29T12:53:35.931Z,2.00
2023-03-29T12:56:02.972Z,4.00
2023-03-29T12:58:38.935Z,3.75
2023-03-29T13:01:06.154Z,4.00
2023-03-29T13:03:42.938Z,1.00
2023-03-29T13:06:10.746Z,2.25
2023-03-29T13:08:39.069Z,2.25
2023-03-29T13:11:06.674Z,4.25
2023-03-29T13:13:37.450Z,4.50
2023-03-29T13:16:09.942Z,3.25
2023-03-29T13:18:42.691Z,3.00
2023-03-29T13:21:32.631Z,5.00
2023-03-29T13:24:19.801Z,2.00
2023-03-29T13:27:04.745Z,1.25
2023-03-29T13:29:56.887Z,3.50
2023-03-29T13:32:29.407Z,2.00
2023-03-29T13:35:14.909Z,2.00
2023-03-29T13:37:54.458Z,2.00
2023-03-29T13:40:47.692Z,1.00
2023-03-29T13:43:30.998Z,2.00
2023-03-29T13:45:57.306Z,2.00
2023-03-29T13:48:46.416Z,3.00
2023-03-29T13:51:18.901Z,3.00
2023-03-29T13:53:57.109Z,2.00
2023-03-29T13:56:27.148Z,1.00
2023-03-29T13:58:57.105Z,4.00
2023-03-29T14:01:36.483Z,1.75
2023-03-29T14:04:05.129Z,3.00
2023-03-29T14:06:33.273Z,3.75
2023-03-29T14:09:02.455Z,1.75
2023-03-29T14:11:29.608Z,3.00
2023-03-29T14:13:57.246Z,4.00
2023-03-29T14:16:27.253Z,3.00
2023-03-29T14:18:54.533Z,2.00
2023-03-29T14:21:21.747Z,2.00
2023-03-29T14:23:54.566Z,2.00
2023-03-29T14:26:23.022Z,2.00
2023-03-29T14:28:53.617Z,2.00
2023-03-29T14:31:25.244Z,2.00
2023-03-29T14:33:56.153Z,3.50
2023-03-29T14:36:23.399Z,6.25
2023-03-29T14:38:51.182Z,4.00
2023-03-29T14:41:18.209Z,5.00
2023-03-29T14:43:45.051Z,5.50
2023-03-29T14:46:12.043Z,7.25
2023-03-29T14:48:38.750Z,4.00
2023-03-29T14:51:05.953Z,1.50
2023-03-29T14:53:34.300Z,2.00
2023-03-29T14:56:02.097Z,0.00
2023-03-29T14:58:31.922Z,1.25
2023-03-29T15:01:03.501Z,2.50
2023-03-29T15:03:29.972Z,2.00
2023-03-29T15:06:02.237Z,2.25
2023-03-29T15:08:28.862Z,4.00
2023-03-29T15:10:55.371Z,2.75
2023-03-29T15:13:24.399Z,2.00
2023-03-29T15:15:52.660Z,0.00
2023-03-29T15:18:22.647Z,3.00
2023-03-29T15:20:51.315Z,4.50
2023-03-29T15:23:17.723Z,3.00
2023-03-29T15:26:07.403Z,4.75
2023-03-29T15:28:35.412Z,5.50
2023-03-29T15:33:34.516Z,7.00
2023-03-29T15:36:02.011Z,4.75
2023-03-29T15:38:40.453Z,4.00
2023-03-29T15:41:10.585Z,6.00
2023-03-29T15:43:37.303Z,4.00
2023-03-29T15:46:04.127Z,4.25
2023-03-29T15:48:33.668Z,4.25
2023-03-29T15:51:03.992Z,3.00
2023-03-29T15:53:32.779Z,4.00
2023-03-29T15:56:01.189Z,3.75
2023-03-29T15:58:29.102Z,3.00
2023-03-29T16:01:23.542Z,5.25
2023-03-29T16:03:50.159Z,4.25
2023-03-29T16:06:17.831Z,4.00
2023-03-29T16:08:44.573Z,5.25
2023-03-29T16:11:11.732Z,4.75
2023-03-29T16:13:38.171Z,7.00
2023-03-29T16:16:04.984Z,5.00
2023-03-29T16:18:31.663Z,5.50
2023-03-29T16:20:59.380Z,6.50
2023-03-29T16:23:26.570Z,7.00
2023-03-29T16:25:53.067Z,7.50
2023-03-29T16:31:11.964Z,8.25
2023-03-29T16:33:39.078Z,8.75
2023-03-29T16:36:06.617Z,10.25
2023-03-29T16:38:34.198Z,6.00
2023-03-29T16:41:00.825Z,9.00
2023-03-29T16:43:27.738Z,12.25
2023-03-29T16:45:58.927Z,13.25
2023-03-29T16:52:29.533Z,25.00
2023-03-29T16:57:40.565Z,36.25
2023-03-29T17:00:10.968Z,37.00
2023-03-29T17:02:38.642Z,39.50
2023-03-29T17:05:09.122Z,38.50
2023-03-29T17:07:35.565Z,37.00
2023-03-29T17:10:10.420Z,39.25
2023-03-29T17:15:40.549Z,40.00
2023-03-29T17:21:06.891Z,32.00
2023-03-29T17:23:33.434Z,33.25
2023-03-29T17:26:01.629Z,32.25
2023-03-29T17:28:28.516Z,33.50
2023-03-29T17:30:57.405Z,32.00
2023-03-29T17:36:07.388Z,35.00
2023-03-29T17:38:35.224Z,37.50
2023-03-29T17:41:04.479Z,43.00
2023-03-29T17:43:31.871Z,43.25
2023-03-29T17:45:58.296Z,54.00
2023-03-29T17:48:24.758Z,52.75
2023-03-29T17:50:51.510Z,56.50
2023-03-29T17:53:21.645Z,52.75
2023-03-29T17:55:48.000Z,48.00
2023-03-29T17:58:14.401Z,48.00
2023-03-29T18:00:40.864Z,65.50
2023-03-29T18:03:07.374Z,49.25
2023-03-29T18:05:34.448Z,50.75
2023-03-29T18:08:01.189Z,60.75
2023-03-29T18:10:27.613Z,59.50
2023-03-29T18:12:54.525Z,56.00
2023-03-29T18:15:21.324Z,54.75
2023-03-29T18:17:47.722Z,59.00
2023-03-29T18:20:14.315Z,56.00
2023-03-29T18:22:43.577Z,53.25
2023-03-29T18:25:11.481Z,46.00
2023-03-29T18:27:38.706Z,50.25
2023-03-29T18:30:06.609Z,54.00
2023-03-29T18:32:33.101Z,62.75
2023-03-29T18:34:59.505Z,49.75
2023-03-29T18:37:26.138Z,45.25
2023-03-29T18:39:52.508Z,50.00
2023-03-29T18:42:21.952Z,52.75
2023-03-29T18:44:48.696Z,49.75
2023-03-29T18:47:15.111Z,47.00
2023-03-29T18:49:41.942Z,46.00
2023-03-29T18:52:09.138Z,37.50
2023-03-29T18:54:35.874Z,31.50
2023-03-29T18:57:02.324Z,39.00
2023-03-29T18:59:28.952Z,39.25
2023-03-29T19:01:55.906Z,34.75
2023-03-29T19:04:23.502Z,1.00
2023-03-29T19:06:51.818Z,35.00
2023-03-29T19:09:18.347Z,38.00
2023-03-29T19:11:54.191Z,38.75
2023-03-29T19:14:23.686Z,38.00
2023-03-29T19:16:51.120Z,35.25
2023-03-29T19:19:20.806Z,32.25
2023-03-29T19:21:47.460Z,32.00
2023-03-29T19:24:14.204Z,33.50
2023-03-29T19:26:42.415Z,30.00
2023-03-29T19:29:09.202Z,32.00
2023-03-29T19:31:40.555Z,33.00
2023-03-29T19:34:09.503Z,31.50
2023-03-29T19:36:35.969Z,32.00
2023-03-29T19:39:02.363Z,32.00
2023-03-29T19:41:28.837Z,28.00
2023-03-29T19:43:57.787Z,32.00
2023-03-29T19:46:34.706Z,31.50
2023-03-29T19:49:04.420Z,31.25
2023-03-29T19:51:32.055Z,29.25
2023-03-29T19:54:07.875Z,28.50
2023-03-29T20:02:47.716Z,27.75
2023-03-29T20:05:15.655Z,27.00
2023-03-29T20:07:42.174Z,7.75
2023-03-29T20:10:09.819Z,12.75
2023-03-29T20:12:36.316Z,21.75
2023-03-29T20:15:03.322Z,22.25
2023-03-29T20:17:29.698Z,29.25
2023-03-29T20:19:56.191Z,28.00
2023-03-29T20:22:26.004Z,31.50
2023-03-29T20:24:55.500Z,29.25
2023-03-29T20:27:23.596Z,32.50
2023-03-29T20:29:50.737Z,31.75
2023-03-29T20:32:17.128Z,32.25
2023-03-29T20:37:53.917Z,26.25
2023-03-29T20:43:54.386Z,21.75
2023-03-29T20:50:29.947Z,23.00
2023-03-29T20:53:32.902Z,25.50
2023-03-29T21:08:20.428Z,19.25
2023-03-29T21:30:24.934Z,19.75
2023-03-29T21:32:51.514Z,20.75
2023-03-29T21:35:18.142Z,18.75
2023-03-29T21:37:44.628Z,20.00
2023-03-29T21:40:12.348Z,22.00
2023-03-29T21:42:39.155Z,25.00
2023-03-29T21:45:05.976Z,24.75
2023-03-29T21:47:32.523Z,18.25
2023-03-29T21:49:58.962Z,18.00
2023-03-29T21:52:25.591Z,19.25
2023-03-29T21:54:52.116Z,18.50
2023-03-29T21:57:18.865Z,18.00
2023-03-29T21:59:45.496Z,16.00
2023-03-29T22:02:12.189Z,16.00
2023-03-29T22:04:38.821Z,15.75
2023-03-29T22:07:05.635Z,14.00
2023-03-29T22:09:33.218Z,19.25
2023-03-29T22:11:59.944Z,14.75
2023-03-29T22:14:28.735Z,18.25
2023-03-29T22:16:56.347Z,15.50
2023-03-29T22:19:22.873Z,16.00
2023-03-29T22:21:49.402Z,15.75
2023-03-29T22:24:16.288Z,13.25
2023-03-29T22:26:45.336Z,16.00
2023-03-29T22:29:12.295Z,17.00
2023-03-29T22:31:39.717Z,18.25
2023-03-29T22:34:06.794Z,17.25
2023-03-29T22:36:33.815Z,16.25
2023-03-29T22:42:21.057Z,16.00
2023-03-29T23:06:28.313Z,18.00
2023-03-29T23:12:59.352Z,20.75
2023-03-29T23:30:47.649Z,23.00
2023-03-29T23:33:29.241Z,23.00
2023-03-29T23:36:12.684Z,18.25
2023-03-29T23:39:05.851Z,22.50
2023-03-29T23:41:45.925Z,19.50
2023-03-29T23:55:03.687Z,18.25
2023-03-29T23:57:41.649Z,17.75
